Time;durP1;ratioP1;P1;durP2;ratioP2;P2;SDS_P1;SDS_P2;PMS_P1;PMS_P2;Temp;Humidity;BMP_temperature;BMP_pressure;BME280_temperature;BME280_humidity;BME280_pressure;Samples;Min_cycle;Max_cycle;Signal;HPM_P1;HPM_P2
2023/04/13 00:00:12;;;;;;;3.95;2.17;;;;;;;8.07;65.54;97974.47;4992494;28;20054;-89
2023/04/13 00:02:38;;;;;;;4.72;2.40;;;;;;;8.08;65.67;97964.84;4974834;28;20050;-86
2023/04/13 00:05:08;;;;;;;4.43;2.45;;;;;;;8.08;65.55;97956.97;4991533;28;20050;-88
2023/04/13 00:07:37;;;;;;;3.15;1.90;;;;;;;8.08;65.61;97962.22;4991378;28;20054;-88
2023/04/13 00:10:08;;;;;;;2.92;1.88;;;;;;;8.07;65.46;97958.75;4974728;28;20495;-89
2023/04/13 00:12:36;;;;;;;2.63;2.05;;;;;;;8.06;65.23;97949.22;4991822;28;20058;-87
2023/04/13 00:15:04;;;;;;;4.00;2.00;;;;;;;8.05;65.46;97955.44;4991138;28;20649;-85
2023/04/13 00:17:32;;;;;;;3.47;2.20;;;;;;;8.05;65.49;97947.56;4974223;28;20499;-85
2023/04/13 00:19:59;;;;;;;4.38;2.13;;;;;;;8.04;65.51;97940.63;4992226;28;20050;-88
2023/04/13 00:22:28;;;;;;;3.72;2.28;;;;;;;8.02;65.56;97942.56;4992222;28;20062;-85
2023/04/13 00:24:56;;;;;;;3.47;2.00;;;;;;;8.01;65.32;97938.28;4991454;28;20058;-88
2023/04/13 00:27:26;;;;;;;2.25;1.73;;;;;;;8.01;65.39;97934.81;4973950;28;20046;-88
2023/04/13 00:29:55;;;;;;;4.32;2.08;;;;;;;8.01;65.21;97932.19;4990378;28;20054;-87
2023/04/13 00:32:22;;;;;;;4.45;2.20;;;;;;;7.98;65.45;97930.63;4991959;28;20137;-89
2023/04/13 00:34:50;;;;;;;2.10;1.88;;;;;;;7.97;65.64;97928.97;4991734;28;20050;-90
2023/04/13 00:37:20;;;;;;;3.97;1.98;;;;;;;7.94;65.34;97922.19;4974804;28;20089;-86
2023/04/13 00:39:47;;;;;;;3.00;1.90;;;;;;;7.96;65.39;97911.56;4991386;28;20058;-86
2023/04/13 00:42:13;;;;;;;2.13;1.52;;;;;;;7.96;65.73;97911.56;4991274;28;20050;-89
2023/04/13 00:44:40;;;;;;;3.03;1.58;;;;;;;7.98;65.77;97914.91;4991729;28;20120;-88
2023/04/13 00:47:07;;;;;;;3.15;1.85;;;;;;;7.99;65.92;97915.75;4991092;28;20104;-87
2023/04/13 00:49:35;;;;;;;2.33;1.50;;;;;;;8.01;65.59;97909.44;4991664;28;20476;-89
2023/04/13 00:52:02;;;;;;;3.28;1.65;;;;;;;8.03;65.45;97901.44;4974369;28;20058;-88
2023/04/13 00:54:29;;;;;;;2.28;1.63;;;;;;;8.04;65.54;97909.19;4974316;28;20101;-89
2023/04/13 00:56:57;;;;;;;4.18;1.50;;;;;;;8.06;65.75;97894.19;4973546;28;20065;-88
2023/04/13 00:59:28;;;;;;;3.13;1.40;;;;;;;8.06;65.04;97902.06;4991044;28;20406;-86
2023/04/13 01:02:00;;;;;;;4.13;1.48;;;;;;;8.10;65.20;97902.66;4991275;28;20046;-86
2023/04/13 01:04:29;;;;;;;2.90;1.40;;;;;;;8.11;65.43;97904.31;4990949;28;20105;-84
2023/04/13 01:07:14;;;;;;;2.10;1.30;;;;;;;8.09;64.44;97885.25;4989655;28;20069;-85
2023/04/13 01:09:51;;;;;;;2.28;1.30;;;;;;;8.15;65.24;97903.13;4991387;28;20462;-89
2023/04/13 01:12:30;;;;;;;3.30;1.48;;;;;;;8.16;64.00;97889.09;4991167;28;20060;-84
2023/04/13 01:15:04;;;;;;;4.03;1.42;;;;;;;8.20;64.78;97893.16;4994865;28;20068;-88
2023/04/13 01:17:34;;;;;;;5.20;1.42;;;;;;;8.23;64.76;97889.44;4993563;28;20089;-87
2023/04/13 01:20:10;;;;;;;2.08;1.23;;;;;;;8.26;64.64;97885.75;4995328;28;20093;-85
2023/04/13 01:22:44;;;;;;;3.00;1.17;;;;;;;8.30;64.48;97889.81;4994537;28;20136;-87
2023/04/13 01:25:16;;;;;;;3.10;1.15;;;;;;;8.31;64.15;97878.34;4977311;28;20145;-87
2023/04/13 01:27:47;;;;;;;3.22;0.90;;;;;;;8.37;64.66;97871.81;4994517;28;20458;-88
2023/04/13 01:30:20;;;;;;;4.03;1.10;;;;;;;8.40;64.80;97864.53;4995055;28;20054;-88
2023/04/13 01:32:53;;;;;;;2.47;1.10;;;;;;;8.42;64.30;97873.13;4977674;28;20713;-85
2023/04/13 01:35:21;;;;;;;2.25;1.15;;;;;;;8.47;65.09;97870.13;4994356;28;20054;-87
2023/04/13 01:37:51;;;;;;;2.58;0.90;;;;;;;8.50;65.17;97864.63;4994134;28;20062;-89
2023/04/13 01:40:19;;;;;;;1.90;0.85;;;;;;;8.52;65.34;97864.53;4977224;28;20058;-86
2023/04/13 01:42:46;;;;;;;1.13;0.80;;;;;;;8.55;64.80;97864.28;4977272;28;20062;-86
2023/04/13 01:45:44;;;;;;;3.85;1.00;;;;;;;8.55;64.67;97859.88;4994192;28;20069;-85
2023/04/13 01:48:18;;;;;;;3.47;1.13;;;;;;;8.57;64.70;97855.34;4981394;28;20562;-88
2023/04/13 01:50:55;;;;;;;2.08;1.10;;;;;;;8.61;64.97;97861.19;4994338;28;20058;-87
2023/04/13 01:53:29;;;;;;;2.88;1.20;;;;;;;8.59;65.05;97855.22;4994518;28;20050;-87
2023/04/13 01:55:56;;;;;;;1.45;0.70;;;;;;;8.62;65.08;97855.00;4994187;28;20066;-87
2023/04/13 01:58:26;;;;;;;2.80;0.90;;;;;;;8.58;65.19;97851.78;4993961;28;20060;-85
2023/04/13 02:00:54;;;;;;;2.22;1.00;;;;;;;8.54;64.62;97857.38;4977003;28;20058;-86
2023/04/13 02:03:24;;;;;;;1.55;0.95;;;;;;;8.52;65.18;97854.03;4994002;28;20058;-85
2023/04/13 02:05:51;;;;;;;1.40;0.98;;;;;;;8.48;65.46;97853.44;4993890;28;20054;-87
2023/04/13 02:08:17;;;;;;;3.38;1.10;;;;;;;8.43;65.46;97851.19;4993662;28;20061;-84
2023/04/13 02:10:44;;;;;;;1.90;0.80;;;;;;;8.36;65.53;97863.09;4994363;28;20062;-88
2023/04/13 02:13:12;;;;;;;2.15;0.80;;;;;;;8.31;65.73;97854.78;4994077;28;20050;-84
2023/04/13 02:15:40;;;;;;;1.70;0.90;;;;;;;8.24;66.45;97849.16;4992324;28;20657;-85
2023/04/13 02:18:06;;;;;;;4.00;1.08;;;;;;;8.19;66.74;97849.53;4993418;28;20054;-83
2023/04/13 02:20:41;;;;;;;2.50;0.90;;;;;;;8.13;67.14;97857.03;4993906;28;20084;-84
2023/04/13 02:23:09;;;;;;;2.70;0.98;;;;;;;8.12;67.49;97850.13;4993897;28;20086;-84
2023/04/13 02:25:36;;;;;;;3.60;1.15;;;;;;;8.07;67.67;97876.66;4993425;28;20068;-85
2023/04/13 02:28:03;;;;;;;1.50;0.95;;;;;;;8.03;68.23;97846.41;4992035;28;20056;-85
2023/04/13 02:30:30;;;;;;;3.45;1.00;;;;;;;8.01;68.34;97850.97;4993573;28;20157;-85
2023/04/13 02:32:56;;;;;;;2.50;1.20;;;;;;;8.00;68.44;97854.53;4993838;28;20050;-86
2023/04/13 02:35:24;;;;;;;3.35;1.08;;;;;;;7.97;68.80;97854.75;4993146;28;20415;-85
2023/04/13 02:37:51;;;;;;;2.88;1.17;;;;;;;7.96;69.24;97848.69;4993241;28;20062;-84
2023/04/13 02:40:18;;;;;;;1.50;1.10;;;;;;;7.94;69.21;97845.34;4993475;28;20065;-85
2023/04/13 02:42:44;;;;;;;3.83;1.27;;;;;;;7.92;69.76;97842.00;4993354;28;20590;-86
2023/04/13 02:45:12;;;;;;;6.20;1.83;;;;;;;7.92;69.79;97828.91;4992909;28;20777;-86
2023/04/13 02:47:39;;;;;;;1.75;1.05;;;;;;;7.94;69.87;97824.41;4993111;28;20054;-83
2023/04/13 02:50:06;;;;;;;2.28;1.10;;;;;;;7.95;70.37;97834.75;4993389;28;20065;-85
2023/04/13 02:52:32;;;;;;;2.35;1.08;;;;;;;7.98;70.15;97831.06;4993349;28;20591;-88
2023/04/13 02:54:59;;;;;;;6.15;1.30;;;;;;;8.00;70.22;97830.97;4992660;28;20144;-84
2023/04/13 02:57:26;;;;;;;3.67;1.20;;;;;;;8.02;70.49;97826.41;4992763;28;20486;-84
2023/04/13 02:59:52;;;;;;;3.35;1.10;;;;;;;8.03;70.42;97828.06;4993332;28;20065;-86
2023/04/13 03:02:20;;;;;;;4.88;1.23;;;;;;;8.03;70.19;97821.06;4993471;28;20137;-85
2023/04/13 03:04:47;;;;;;;2.60;1.10;;;;;;;8.04;70.23;97807.00;4993273;28;20527;-86
2023/04/13 03:07:15;;;;;;;1.45;0.88;;;;;;;8.06;70.43;97820.81;4990167;28;20074;-85
2023/04/13 03:09:46;;;;;;;1.90;1.08;;;;;;;8.06;70.56;97820.00;4992767;28;20050;-86
2023/04/13 03:12:12;;;;;;;4.25;1.13;;;;;;;8.11;70.77;97809.16;4993038;28;20058;-86
2023/04/13 03:14:39;;;;;;;2.88;1.15;;;;;;;8.12;70.59;97816.06;4993134;28;20054;-90
2023/04/13 03:17:06;;;;;;;3.83;1.30;;;;;;;8.13;70.66;97821.19;4992226;28;20061;-85
2023/04/13 03:19:34;;;;;;;4.25;1.15;;;;;;;8.15;70.72;97827.13;4991923;28;20083;-86
2023/04/13 03:22:01;;;;;;;5.00;1.48;;;;;;;8.14;70.52;97817.59;4992581;28;20499;-87
2023/04/13 03:24:27;;;;;;;4.32;1.10;;;;;;;8.16;70.35;97822.72;4992671;28;20054;-83
2023/04/13 03:26:55;;;;;;;3.67;1.10;;;;;;;8.15;70.83;97829.75;4991220;28;20061;-86
2023/04/13 03:29:25;;;;;;;2.13;1.00;;;;;;;8.12;70.42;97814.28;4992615;28;20057;-86
2023/04/13 03:31:51;;;;;;;3.63;1.30;;;;;;;8.12;71.01;97822.16;4992672;28;20141;-85
2023/04/13 03:34:18;;;;;;;2.10;0.82;;;;;;;8.11;70.69;97819.63;4992610;28;20129;-85
2023/04/13 03:36:45;;;;;;;1.65;1.08;;;;;;;8.08;71.14;97818.91;4991112;28;20058;-86
2023/04/13 03:39:11;;;;;;;1.45;0.85;;;;;;;8.07;71.13;97821.66;4992353;28;20086;-85
2023/04/13 03:41:38;;;;;;;2.85;1.38;;;;;;;8.05;71.13;97818.31;4992570;28;20057;-83
2023/04/13 03:44:06;;;;;;;5.97;1.30;;;;;;;8.05;71.18;97823.56;4991374;28;20060;-87
2023/04/13 03:46:36;;;;;;;8.93;1.60;;;;;;;8.02;71.47;97814.16;4991661;28;20054;-83
2023/04/13 03:49:07;;;;;;;3.05;1.23;;;;;;;8.03;71.47;97820.22;4992496;28;20513;-84
2023/04/13 03:51:34;;;;;;;3.42;1.42;;;;;;;8.02;71.88;97821.19;4992226;28;20491;-82
2023/04/13 03:54:02;;;;;;;4.70;1.50;;;;;;;8.03;72.04;97820.22;4992623;28;20059;-86
2023/04/13 03:56:29;;;;;;;3.90;1.40;;;;;;;7.98;71.63;97835.47;4991538;28;20499;-84
2023/04/13 03:58:56;;;;;;;3.22;1.17;;;;;;;8.00;72.05;97817.84;4990388;28;20054;-85
2023/04/13 04:01:22;;;;;;;2.78;1.65;;;;;;;8.00;72.13;97826.53;4992252;28;20415;-84
2023/04/13 04:03:49;;;;;;;3.40;1.35;;;;;;;8.03;72.42;97838.56;4992039;28;20059;-85
2023/04/13 04:06:16;;;;;;;3.13;1.52;;;;;;;8.03;72.46;97830.69;4991537;28;20117;-85
2023/04/13 04:08:44;;;;;;;4.07;1.60;;;;;;;8.04;72.31;97829.78;4991483;28;20061;-81
2023/04/13 04:11:10;;;;;;;6.53;1.77;;;;;;;8.04;72.42;97845.50;4992643;28;20066;-83
2023/04/13 04:13:37;;;;;;;3.03;1.48;;;;;;;8.04;72.80;97833.19;4991786;28;20496;-86
2023/04/13 04:16:05;;;;;;;4.30;1.70;;;;;;;8.05;72.66;97841.91;4990152;28;20050;-84
2023/04/13 04:18:32;;;;;;;4.63;1.92;;;;;;;8.04;72.84;97838.44;4991359;28;20094;-87
2023/04/13 04:24:33;;;;;;;;;;;;;;;;;;;;;
2023/04/13 04:27:40;;;;;;;3.25;1.48;;;;;;;8.03;72.97;97843.78;4961817;28;20137;-77
2023/04/13 04:30:28;;;;;;;4.32;1.80;;;;;;;8.06;73.22;97862.75;4991434;28;20062;-76
2023/04/13 04:32:56;;;;;;;3.60;1.80;;;;;;;8.04;73.16;97853.34;4975345;28;20403;-76
2023/04/13 04:35:48;;;;;;;4.55;1.80;;;;;;;8.06;73.60;97854.06;4974862;28;20043;-76
2023/04/13 04:38:37;;;;;;;3.92;1.88;;;;;;;7.99;73.64;97864.16;4975427;28;20112;-76
2023/04/13 04:41:29;;;;;;;4.15;1.85;;;;;;;7.98;73.80;97865.13;4992067;28;20593;-77
2023/04/13 04:44:15;;;;;;;4.23;1.87;;;;;;;7.99;74.07;97858.94;4992161;28;20065;-76
2023/04/13 04:48:25;;;;;;;3.17;1.88;;;;;;;7.97;74.07;97875.72;4950110;28;20055;-76
2023/04/13 04:50:33;;;;;;;5.20;2.35;;;;;;;7.98;74.06;97872.16;4939679;28;20059;-77
2023/04/13 04:53:06;;;;;;;3.25;2.53;;;;;;;7.99;74.46;97871.22;4950272;28;20059;-76
2023/04/13 04:55:55;;;;;;;5.18;2.30;;;;;;;8.01;74.69;97885.03;4950325;29;20065;-77
2023/04/13 04:58:24;;;;;;;8.40;2.60;;;;;;;8.02;74.94;97891.91;4950093;29;20081;-76
2023/04/13 05:00:55;;;;;;;5.22;2.50;;;;;;;8.03;74.67;97890.97;4950410;28;20466;-77
2023/04/13 05:03:52;;;;;;;5.00;2.30;;;;;;;8.04;74.79;97890.84;4950606;28;20046;-77
2023/04/13 05:06:19;;;;;;;4.53;2.60;;;;;;;8.07;74.89;97901.09;4959068;28;20090;-76
2023/04/13 05:09:03;;;;;;;6.03;2.67;;;;;;;8.06;74.93;97893.34;4975060;28;20055;-77
2023/04/13 05:11:48;;;;;;;6.55;2.38;;;;;;;8.09;74.71;97901.00;4991682;28;20153;-76
2023/04/13 05:14:23;;;;;;;5.88;2.42;;;;;;;8.13;75.13;97914.69;4977500;28;20563;-77
2023/04/13 05:19:56;;;;;;;5.10;1.92;;;;;;;8.17;75.23;97930.06;4936296;29;20145;-78
2023/04/13 05:22:28;;;;;;;7.15;2.35;;;;;;;8.14;74.95;97935.53;4950172;29;20055;-78
2023/04/13 05:25:12;;;;;;;4.18;2.42;;;;;;;8.15;74.86;97939.81;4948934;28;20055;-76
2023/04/13 05:28:14;;;;;;;;;;;;;;;8.21;74.51;97943.75;4954546;28;20042;-77
2023/04/13 05:31:14;;;;;;;5.15;2.70;;;;;;;8.23;74.55;97948.88;4862700;29;19966;-77
2023/04/13 05:37:49;;;;;;;4.07;2.45;;;;;;;8.27;74.89;97948.56;4852747;29;20101;-76
2023/04/13 05:40:15;;;;;;;4.13;2.47;;;;;;;8.27;74.99;97959.03;4890399;29;20577;-76
2023/04/13 05:45:58;;;;;;;6.03;2.47;;;;;;;8.30;75.03;97968.44;4971779;28;20113;-77
2023/04/13 05:48:28;;;;;;;3.92;2.50;;;;;;;8.33;75.06;97974.28;4973558;28;20050;-78
2023/04/13 05:51:00;;;;;;;4.03;2.50;;;;;;;8.37;75.10;97980.09;4991161;28;20089;-75
2023/04/13 05:54:08;;;;;;;4.85;2.40;;;;;;;8.34;74.48;97989.06;4991295;28;20062;-78
2023/04/13 05:56:56;;;;;;;4.63;2.10;;;;;;;8.43;75.46;98002.41;4934970;28;20046;-78
2023/04/13 05:59:43;;;;;;;4.57;2.65;;;;;;;8.42;75.18;98001.59;4975170;28;20056;-76
2023/04/13 06:02:13;;;;;;;3.08;2.33;;;;;;;8.47;75.63;97999.44;4994503;28;20145;-76
2023/04/13 06:04:46;;;;;;;5.45;2.30;;;;;;;8.51;75.47;98009.69;4994835;28;20154;-76
2023/04/13 06:07:15;;;;;;;3.15;2.22;;;;;;;8.57;76.07;98009.25;4995986;28;20054;-78
2023/04/13 06:09:51;;;;;;;3.55;2.30;;;;;;;8.58;75.35;98022.25;5001503;28;20130;-78
2023/04/13 06:12:32;;;;;;;4.32;2.33;;;;;;;8.66;75.80;98021.66;4996534;28;20495;-75
2023/04/13 06:14:59;;;;;;;4.45;2.67;;;;;;;8.70;75.65;98025.72;4993897;28;20094;-76
2023/04/13 06:17:26;;;;;;;4.43;2.47;;;;;;;8.75;75.42;98035.00;4979847;28;20474;-76
2023/04/13 06:19:53;;;;;;;7.90;2.45;;;;;;;8.79;75.36;98036.44;4994029;28;20087;-76
2023/04/13 06:22:20;;;;;;;4.18;2.10;;;;;;;8.80;75.38;98035.50;4994157;28;20058;-76
2023/04/13 06:24:48;;;;;;;4.85;2.20;;;;;;;8.84;75.45;98042.16;4993680;28;20487;-77
2023/04/13 06:27:36;;;;;;;4.25;2.25;;;;;;;8.90;75.17;98043.50;4993648;28;20050;-76
2023/04/13 06:30:33;;;;;;;2.92;2.22;;;;;;;8.95;75.21;98052.69;4994120;28;20141;-76
2023/04/13 06:33:03;;;;;;;4.75;1.85;;;;;;;9.01;75.48;98058.41;4974282;28;20058;-76
2023/04/13 06:35:51;;;;;;;3.78;2.20;;;;;;;9.04;74.08;98066.03;4985650;28;20065;-77
2023/04/13 06:38:17;;;;;;;5.53;2.17;;;;;;;9.10;75.09;98062.94;4993403;28;20062;-76
2023/04/13 06:40:44;;;;;;;5.38;2.20;;;;;;;9.13;75.06;98067.94;4976385;28;20253;-76
2023/04/13 06:43:11;;;;;;;4.75;2.13;;;;;;;9.16;74.88;98067.69;4993734;28;20066;-76
2023/04/13 06:45:59;;;;;;;6.68;2.08;;;;;;;9.16;73.31;98075.56;4993031;28;20396;-76
2023/04/13 06:48:26;;;;;;;5.03;2.17;;;;;;;9.19;73.82;98064.00;4991053;28;20094;-76
2023/04/13 06:50:55;;;;;;;4.63;2.22;;;;;;;9.20;73.83;98076.16;4993110;28;20058;-76
2023/04/13 06:53:22;;;;;;;4.85;2.20;;;;;;;9.22;74.29;98082.97;4992811;28;20108;-76
2023/04/13 06:55:49;;;;;;;4.55;2.22;;;;;;;9.25;74.24;98081.88;4992849;28;20101;-76
2023/04/13 06:58:16;;;;;;;4.72;1.92;;;;;;;9.28;74.49;98086.06;4992816;28;20050;-76
2023/04/13 07:00:43;;;;;;;7.90;1.90;;;;;;;9.32;74.52;98098.00;4992620;28;20760;-76
2023/04/13 07:03:09;;;;;;;5.97;2.38;;;;;;;9.37;74.39;98090.59;4993071;28;20082;-76
2023/04/13 07:05:37;;;;;;;4.38;2.33;;;;;;;9.42;74.31;98092.84;4992805;28;20112;-77
2023/04/13 07:08:11;;;;;;;3.05;1.52;;;;;;;9.44;72.95;98098.81;4992505;28;20089;-77
2023/04/13 07:10:39;;;;;;;3.42;1.92;;;;;;;9.51;73.88;98107.88;4992165;28;20058;-76
2023/04/13 07:13:06;;;;;;;5.65;2.20;;;;;;;9.54;73.78;98117.31;4992978;28;20133;-77
2023/04/13 07:15:36;;;;;;;4.80;2.67;;;;;;;9.56;73.30;98115.38;4992586;28;20141;-76
2023/04/13 07:18:03;;;;;;;7.18;2.45;;;;;;;9.58;73.52;98124.84;4992165;28;20054;-77
2023/04/13 07:20:30;;;;;;;3.70;2.42;;;;;;;9.61;73.55;98115.88;4989200;28;20043;-76
2023/04/13 07:22:57;;;;;;;5.57;2.92;;;;;;;9.61;73.52;98124.56;4984764;28;20079;-79
2023/04/13 07:25:23;;;;;;;5.38;2.80;;;;;;;9.62;72.99;98144.66;4992692;28;20491;-77
2023/04/13 07:27:56;;;;;;;4.63;3.00;;;;;;;9.63;72.99;98127.06;4992524;28;20541;-77
2023/04/13 07:30:23;;;;;;;7.63;3.08;;;;;;;9.64;72.94;98128.75;4991310;28;20479;-77
2023/04/13 07:32:49;;;;;;;6.68;3.22;;;;;;;9.64;72.46;98149.75;4992512;28;20050;-77
2023/04/13 07:35:16;;;;;;;10.20;3.50;;;;;;;9.65;72.64;98152.28;4992342;28;20065;-77
2023/04/13 07:37:43;;;;;;;8.35;3.17;;;;;;;9.65;72.21;98154.91;4992057;28;20137;-77
2023/04/13 07:40:10;;;;;;;7.13;3.00;;;;;;;9.67;72.44;98160.03;4992365;28;20054;-77
2023/04/13 07:42:57;;;;;;;5.38;3.40;;;;;;;9.71;72.56;98165.88;4991762;28;20129;-78
2023/04/13 07:45:24;;;;;;;7.18;3.78;;;;;;;9.72;72.66;98163.13;4991938;28;20054;-78
2023/04/13 07:47:53;;;;;;;5.55;3.58;;;;;;;9.76;72.72;98182.94;4992271;28;20081;-79
2023/04/13 07:50:20;;;;;;;6.88;3.25;;;;;;;9.82;72.93;98180.78;4992332;28;20081;-79
2023/04/13 07:52:46;;;;;;;10.10;3.30;;;;;;;9.87;72.57;98183.91;4990934;28;20054;-78
2023/04/13 07:55:13;;;;;;;5.70;3.42;;;;;;;9.94;72.31;98177.19;4990735;28;20105;-78
2023/04/13 07:57:40;;;;;;;8.80;3.40;;;;;;;9.99;72.17;98177.66;4991597;28;20058;-78
2023/04/13 08:00:07;;;;;;;9.82;3.60;;;;;;;10.04;71.27;98170.25;5006709;28;20085;-78
2023/04/13 08:02:36;;;;;;;6.68;2.90;;;;;;;10.12;71.55;98169.63;4992252;28;20081;-79
2023/04/13 08:05:03;;;;;;;6.70;3.40;;;;;;;10.18;71.46;98181.44;4991864;28;20101;-78
2023/04/13 08:07:30;;;;;;;7.35;3.40;;;;;;;10.23;71.81;98183.69;4990265;28;20070;-78
2023/04/13 08:09:57;;;;;;;5.55;3.28;;;;;;;10.30;72.33;98183.06;4992023;28;20065;-79
2023/04/13 08:12:23;;;;;;;7.15;3.33;;;;;;;10.38;71.94;98189.50;4991511;28;20061;-78
2023/04/13 08:14:50;;;;;;;6.13;3.17;;;;;;;10.46;71.24;98189.72;4991676;28;20050;-79
2023/04/13 08:17:17;;;;;;;5.00;3.53;;;;;;;10.55;71.06;98188.97;4991474;28;20120;-78
2023/04/13 08:19:44;;;;;;;6.75;3.13;;;;;;;10.63;71.00;98190.13;4991630;28;20094;-81
2023/04/13 08:22:10;;;;;;;4.90;3.00;;;;;;;10.67;70.77;98202.94;4991530;28;20153;-78
2023/04/13 08:24:37;;;;;;;6.18;2.80;;;;;;;10.71;70.22;98210.56;4991700;28;20061;-78
2023/04/13 08:27:06;;;;;;;4.18;2.38;;;;;;;10.71;68.46;98216.66;4990860;28;20578;-78
2023/04/13 08:29:32;;;;;;;7.35;2.65;;;;;;;10.75;69.60;98219.88;4990378;28;20141;-78
2023/04/13 08:32:00;;;;;;;5.28;2.70;;;;;;;10.73;68.20;98217.34;4991633;28;20150;-78
2023/04/13 08:34:27;;;;;;;6.28;2.70;;;;;;;10.70;67.87;98217.63;4991103;28;20042;-79
2023/04/13 08:37:02;;;;;;;5.95;2.60;;;;;;;10.63;63.93;98225.19;4990405;28;20089;-78
2023/04/13 08:39:29;;;;;;;5.90;2.55;;;;;;;10.64;67.98;98220.75;4991215;28;20058;-78
2023/04/13 08:41:56;;;;;;;4.47;2.60;;;;;;;10.61;67.97;98223.66;4991341;28;20566;-79
2023/04/13 08:44:23;;;;;;;6.45;2.40;;;;;;;10.58;68.25;98232.59;4991218;28;20540;-78
2023/04/13 08:46:51;;;;;;;3.63;2.40;;;;;;;10.58;68.65;98258.09;4990640;28;20068;-78
2023/04/13 08:49:18;;;;;;;6.93;2.90;;;;;;;10.54;68.42;98253.09;4991005;28;20058;-78
2023/04/13 08:52:07;;;;;;;6.70;2.88;;;;;;;10.50;67.38;98264.00;4978256;28;20061;-79
2023/04/13 08:54:34;;;;;;;6.53;3.05;;;;;;;10.47;68.58;98272.94;4991445;28;20117;-78
2023/04/13 08:57:02;;;;;;;6.95;3.10;;;;;;;10.37;68.61;98275.47;4990445;28;20065;-78
2023/04/13 08:59:51;;;;;;;6.18;2.85;;;;;;;10.24;68.38;98272.97;4991121;28;20054;-78
2023/04/13 09:02:35;;;;;;;3.92;2.65;;;;;;;10.18;69.75;98273.47;4974492;28;20062;-78
2023/04/13 09:05:25;;;;;;;6.03;2.90;;;;;;;10.08;70.33;98278.63;4973928;28;20058;-78
2023/04/13 09:07:55;;;;;;;7.50;3.40;;;;;;;10.00;70.64;98287.13;4972657;28;20058;-78
2023/04/13 09:10:24;;;;;;;8.02;3.00;;;;;;;9.96;71.41;98293.56;4990881;28;20058;-78
2023/04/13 09:12:57;;;;;;;6.50;2.97;;;;;;;9.90;71.43;98297.50;4990724;28;20150;-78
2023/04/13 09:15:41;;;;;;;5.43;2.85;;;;;;;9.86;71.78;98297.84;4980064;28;20133;-77
2023/04/13 09:18:17;;;;;;;7.53;3.30;;;;;;;9.82;71.92;98293.78;4991398;28;20061;-77
2023/04/13 09:20:58;;;;;;;8.05;3.50;;;;;;;9.74;71.93;98294.38;4990832;28;20091;-78
2023/04/13 09:23:25;;;;;;;4.53;2.83;;;;;;;9.73;72.53;98296.19;4990709;28;20121;-78
2023/04/13 09:26:03;;;;;;;9.82;3.47;;;;;;;9.67;72.45;98304.53;4990664;28;20553;-78
2023/04/13 09:28:30;;;;;;;5.38;3.28;;;;;;;9.69;73.07;98307.91;4990771;28;20061;-78
2023/04/13 09:31:04;;;;;;;7.07;3.92;;;;;;;9.64;73.11;98310.03;4990899;28;20119;-78
2023/04/13 09:33:45;;;;;;;20.58;4.20;;;;;;;9.63;73.19;98324.13;4990967;28;20076;-77
2023/04/13 09:36:14;;;;;;;6.63;3.20;;;;;;;9.66;74.29;98318.63;4994554;28;20058;-78
2023/04/13 09:38:47;;;;;;;5.22;3.05;;;;;;;9.66;74.07;98313.38;4994445;28;20061;-78
2023/04/13 09:41:13;;;;;;;9.35;3.38;;;;;;;9.69;74.59;98315.78;4994851;28;20066;-78
2023/04/13 09:43:40;;;;;;;4.80;2.97;;;;;;;9.69;74.72;98331.53;4994604;28;20065;-78
2023/04/13 09:46:13;;;;;;;5.90;3.22;;;;;;;9.73;74.30;98335.63;4976611;28;20054;-78
2023/04/13 09:48:40;;;;;;;4.63;3.00;;;;;;;9.78;75.08;98333.47;4993930;28;20829;-78
2023/04/13 09:51:08;;;;;;;5.15;3.10;;;;;;;9.83;74.83;98338.34;4976990;28;20054;-78
2023/04/13 09:53:42;;;;;;;3.67;2.53;;;;;;;9.85;74.06;98346.97;4994480;28;20105;-78
2023/04/13 09:56:09;;;;;;;4.15;2.63;;;;;;;9.89;74.43;98330.00;4976664;28;20050;-78
2023/04/13 09:58:46;;;;;;;4.38;2.65;;;;;;;9.91;73.64;98350.91;4993859;28;20475;-78
2023/04/13 10:01:16;;;;;;;4.65;2.60;;;;;;;9.95;74.42;98347.09;4994784;28;20455;-78
2023/04/13 10:03:43;;;;;;;5.13;2.42;;;;;;;9.98;74.49;98357.34;4976996;28;20146;-78
2023/04/13 10:08:45;;;;;;;4.57;2.35;;;;;;;9.99;74.46;98348.50;5010588;28;20403;-79
2023/04/13 10:11:13;;;;;;;4.30;2.70;;;;;;;10.00;74.58;98365.97;5013594;28;20084;-79
2023/04/13 10:13:47;;;;;;;3.95;3.22;;;;;;;10.01;74.17;98365.00;5013752;28;20132;-77
2023/04/13 10:16:13;;;;;;;;;;;;;;;10.06;72.81;98362.03;5013867;28;20057;-79
2023/04/13 10:18:58;;;;;;;6.40;3.13;;;;;;;10.13;73.78;98370.28;5013480;28;19921;-79
2023/04/13 10:21:42;;;;;;;3.63;2.92;;;;;;;10.19;73.28;98368.94;5013415;28;20086;-79
2023/04/13 10:26:46;;;;;;;4.95;3.25;;;;;;;10.35;74.64;98369.44;5015723;23;20054;-85
2023/04/13 10:30:18;;;;;;;;;;;;;;;;;;;;;
2023/04/13 10:40:42;;;;;;;6.80;3.03;;;;;;;10.90;70.75;98375.72;4892893;29;20055;-85
2023/04/13 10:44:05;;;;;;;6.00;3.35;;;;;;;11.18;73.01;98376.13;4916055;29;20052;-85
2023/04/13 10:46:55;;;;;;;5.68;3.90;;;;;;;11.41;77.09;98371.59;4969109;28;20192;-85
2023/04/13 10:50:26;;;;;;;7.22;3.80;;;;;;;11.59;70.78;98379.75;4958135;28;20074;-87
2023/04/13 10:53:11;;;;;;;5.60;3.10;;;;;;;11.77;67.41;98375.69;4962401;28;20509;-84
2023/04/13 10:55:40;;;;;;;5.53;3.08;;;;;;;11.89;70.03;98381.72;4977012;28;20055;-83
2023/04/13 10:58:21;;;;;;;8.20;3.60;;;;;;;11.96;71.36;98385.53;4978235;28;20163;-85
2023/04/13 11:00:58;;;;;;;6.18;3.58;;;;;;;11.96;70.15;98388.97;4984075;28;20116;-84
2023/04/13 11:03:27;;;;;;;7.63;3.13;;;;;;;11.93;69.65;98396.31;4991705;28;20062;-84
2023/04/13 11:05:57;;;;;;;5.80;2.90;;;;;;;11.85;68.64;98391.72;4992592;28;20062;-85
2023/04/13 11:08:41;;;;;;;8.85;3.35;;;;;;;11.77;68.81;98397.59;4991171;28;20081;-85
2023/04/13 11:11:31;;;;;;;10.15;3.97;;;;;;;11.65;68.47;98406.53;4993020;28;20061;-85
2023/04/13 11:14:00;;;;;;;9.95;3.55;;;;;;;11.55;69.20;98414.41;4992724;28;20064;-85
2023/04/13 11:16:34;;;;;;;10.18;3.78;;;;;;;11.49;69.44;98417.53;4992000;28;20496;-85
2023/04/13 11:19:05;;;;;;;7.03;3.67;;;;;;;11.40;70.23;98408.59;4991669;28;20064;-84
2023/04/13 11:21:35;;;;;;;6.00;3.70;;;;;;;11.37;70.57;98414.97;4993746;28;20437;-84
2023/04/13 11:24:03;;;;;;;7.43;3.55;;;;;;;11.38;70.46;98421.03;4992608;28;20058;-84
2023/04/13 11:26:36;;;;;;;9.05;3.85;;;;;;;11.39;70.58;98420.06;4982467;28;20058;-85
2023/04/13 11:29:16;;;;;;;7.07;3.45;;;;;;;11.43;70.88;98422.34;4992349;28;20054;-85
2023/04/13 11:31:53;;;;;;;7.78;3.50;;;;;;;11.47;70.54;98426.41;4991352;28;20133;-85
2023/04/13 11:34:25;;;;;;;9.23;4.63;;;;;;;11.52;69.41;98439.22;4991096;28;20073;-84
2023/04/13 11:37:04;;;;;;;8.20;3.53;;;;;;;11.59;68.12;98442.16;4989861;28;20050;-84
2023/04/13 11:39:35;;;;;;;6.13;2.72;;;;;;;11.70;69.47;98446.56;4979757;28;20236;-84
2023/04/13 11:42:16;;;;;;;;;;;;;;;;;;;;;
2023/04/13 11:44:47;;;;;;;10.38;3.00;;;;;;;12.15;72.86;98485.03;4990367;28;20058;-85
2023/04/13 11:47:28;;;;;;;;;;;;;;;12.57;61.83;98455.13;4988723;28;20054;-81
2023/04/13 11:49:54;;;;;;;6.60;2.13;;;;;;;13.18;75.08;98464.88;4988908;28;20020;-82
2023/04/13 11:52:21;;;;;;;4.95;1.80;;;;;;;13.74;73.47;98459.94;4982362;28;20070;-82
2023/04/13 11:54:49;;;;;;;6.35;1.85;;;;;;;14.29;73.58;98456.66;4991648;28;20069;-84
2023/04/13 11:57:19;;;;;;;6.55;1.90;;;;;;;14.78;69.97;98458.31;4990856;28;20524;-81
2023/04/13 11:59:52;;;;;;;7.35;2.03;;;;;;;15.17;65.45;98454.59;4991735;28;20097;-81
2023/04/13 12:02:29;;;;;;;7.93;2.00;;;;;;;15.36;59.17;98450.13;4973679;28;20058;-81
2023/04/13 12:05:00;;;;;;;6.32;2.05;;;;;;;15.45;61.10;98470.47;4974893;28;20061;-81
2023/04/13 12:07:27;;;;;;;4.60;1.67;;;;;;;15.35;59.07;98465.22;4990855;28;20054;-81
2023/04/13 12:09:54;;;;;;;4.85;2.00;;;;;;;15.15;58.39;98468.97;4991388;28;20050;-81
2023/04/13 12:12:26;;;;;;;6.07;2.53;;;;;;;14.88;57.96;98463.53;4974729;28;20058;-81
2023/04/13 12:14:57;;;;;;;9.63;2.45;;;;;;;14.58;57.58;98479.53;4990856;28;20065;-81
2023/04/13 12:17:53;;;;;;;11.30;2.80;;;;;;;14.22;54.51;98479.38;4976707;28;20057;-81
2023/04/13 12:20:36;;;;;;;6.57;2.45;;;;;;;13.94;55.72;98480.09;4976178;28;20054;-81
2023/04/13 12:23:02;;;;;;;12.73;3.53;;;;;;;13.74;59.74;98483.72;4990879;28;20497;-81
2023/04/13 12:25:40;;;;;;;7.28;3.30;;;;;;;13.57;61.91;98488.75;4975151;28;20058;-81
2023/04/13 12:28:07;;;;;;;7.57;2.80;;;;;;;13.51;62.88;98489.31;4990615;28;20513;-80
2023/04/13 12:30:34;;;;;;;6.28;2.63;;;;;;;13.50;63.17;98485.00;4991402;28;20046;-80
2023/04/13 12:33:00;;;;;;;7.35;2.53;;;;;;;13.58;64.28;98487.78;4973612;28;20054;-80
2023/04/13 12:35:27;;;;;;;9.18;2.70;;;;;;;13.74;65.99;98489.88;4990659;28;20061;-80